sensor_id;sensor_type;location;lat;lon;timestamp;P1;durP1;ratioP1;P2;durP2;ratioP2
19127;SDS011;9696;53.686;10.094;2022-07-10T00:00:43;6.00;;;0.60;;
19127;SDS011;9696;53.686;10.094;2022-07-10T00:03:11;4.43;;;0.90;;
19127;SDS011;9696;53.686;10.094;2022-07-10T00:05:40;2.07;;;0.57;;
19127;SDS011;9696;53.686;10.094;2022-07-10T00:08:09;3.57;;;0.63;;
19127;SDS011;9696;53.686;10.094;2022-07-10T00:10:39;2.43;;;0.60;;
19127;SDS011;9696;53.686;10.094;2022-07-10T00:13:07;2.60;;;0.53;;
19127;SDS011;9696;53.686;10.094;2022-07-10T00:15:36;4.70;;;0.53;;
19127;SDS011;9696;53.686;10.094;2022-07-10T00:18:07;5.67;;;0.80;;
19127;SDS011;9696;53.686;10.094;2022-07-10T00:20:36;3.93;;;0.60;;
19127;SDS011;9696;53.686;10.094;2022-07-10T00:23:06;4.07;;;0.60;;
19127;SDS011;9696;53.686;10.094;2022-07-10T00:25:35;3.60;;;0.40;;
19127;SDS011;9696;53.686;10.094;2022-07-10T00:28:04;4.47;;;0.60;;
19127;SDS011;9696;53.686;10.094;2022-07-10T00:30:33;2.70;;;0.50;;
19127;SDS011;9696;53.686;10.094;2022-07-10T00:33:02;3.07;;;0.70;;
19127;SDS011;9696;53.686;10.094;2022-07-10T00:35:33;7.23;;;0.60;;
19127;SDS011;9696;53.686;10.094;2022-07-10T00:38:03;2.53;;;0.50;;
19127;SDS011;9696;53.686;10.094;2022-07-10T00:40:32;2.40;;;0.50;;
19127;SDS011;9696;53.686;10.094;2022-07-10T00:43:00;1.90;;;0.70;;
19127;SDS011;9696;53.686;10.094;2022-07-10T00:45:30;3.33;;;0.57;;
19127;SDS011;9696;53.686;10.094;2022-07-10T00:47:59;3.23;;;0.50;;
19127;SDS011;9696;53.686;10.094;2022-07-10T00:50:28;3.23;;;0.80;;
19127;SDS011;9696;53.686;10.094;2022-07-10T00:52:59;4.93;;;0.60;;
19127;SDS011;9696;53.686;10.094;2022-07-10T00:55:29;5.70;;;0.80;;
19127;SDS011;9696;53.686;10.094;2022-07-10T00:57:58;3.73;;;0.60;;
19127;SDS011;9696;53.686;10.094;2022-07-10T01:00:27;6.40;;;0.80;;
19127;SDS011;9696;53.686;10.094;2022-07-10T01:02:57;5.37;;;0.70;;
19127;SDS011;9696;53.686;10.094;2022-07-10T01:05:26;7.30;;;1.00;;
19127;SDS011;9696;53.686;10.094;2022-07-10T01:07:55;3.57;;;0.50;;
19127;SDS011;9696;53.686;10.094;2022-07-10T01:10:23;4.17;;;0.60;;
19127;SDS011;9696;53.686;10.094;2022-07-10T01:12:54;8.33;;;0.90;;
19127;SDS011;9696;53.686;10.094;2022-07-10T01:15:28;3.53;;;0.87;;
19127;SDS011;9696;53.686;10.094;2022-07-10T01:17:58;4.93;;;0.93;;
19127;SDS011;9696;53.686;10.094;2022-07-10T01:20:29;6.10;;;0.87;;
19127;SDS011;9696;53.686;10.094;2022-07-10T01:22:59;6.07;;;0.90;;
19127;SDS011;9696;53.686;10.094;2022-07-10T01:25:30;6.07;;;0.97;;
19127;SDS011;9696;53.686;10.094;2022-07-10T01:27:58;5.37;;;0.83;;
19127;SDS011;9696;53.686;10.094;2022-07-10T01:30:27;5.50;;;1.00;;
19127;SDS011;9696;53.686;10.094;2022-07-10T01:32:56;8.53;;;0.90;;
19127;SDS011;9696;53.686;10.094;2022-07-10T01:35:24;7.97;;;0.80;;
19127;SDS011;9696;53.686;10.094;2022-07-10T01:37:53;3.67;;;0.90;;
19127;SDS011;9696;53.686;10.094;2022-07-10T01:40:27;6.07;;;0.73;;
19127;SDS011;9696;53.686;10.094;2022-07-10T01:42:56;8.43;;;0.70;;
19127;SDS011;9696;53.686;10.094;2022-07-10T01:45:27;10.97;;;1.67;;
19127;SDS011;9696;53.686;10.094;2022-07-10T01:47:56;4.50;;;1.00;;
19127;SDS011;9696;53.686;10.094;2022-07-10T01:50:24;6.27;;;0.80;;
19127;SDS011;9696;53.686;10.094;2022-07-10T01:52:56;4.20;;;0.83;;
19127;SDS011;9696;53.686;10.094;2022-07-10T01:55:26;11.00;;;1.20;;
19127;SDS011;9696;53.686;10.094;2022-07-10T01:57:55;7.57;;;1.00;;
19127;SDS011;9696;53.686;10.094;2022-07-10T02:00:23;3.60;;;0.73;;
19127;SDS011;9696;53.686;10.094;2022-07-10T02:02:51;4.87;;;1.33;;
19127;SDS011;9696;53.686;10.094;2022-07-10T02:05:37;6.80;;;1.40;;
19127;SDS011;9696;53.686;10.094;2022-07-10T02:08:06;7.53;;;1.23;;
19127;SDS011;9696;53.686;10.094;2022-07-10T02:10:41;6.73;;;1.13;;
19127;SDS011;9696;53.686;10.094;2022-07-10T02:13:14;12.43;;;1.20;;
19127;SDS011;9696;53.686;10.094;2022-07-10T02:15:46;6.23;;;0.97;;
19127;SDS011;9696;53.686;10.094;2022-07-10T02:18:14;7.87;;;1.00;;
19127;SDS011;9696;53.686;10.094;2022-07-10T02:20:43;7.00;;;0.97;;
19127;SDS011;9696;53.686;10.094;2022-07-10T02:23:11;11.00;;;1.67;;
19127;SDS011;9696;53.686;10.094;2022-07-10T02:25:40;8.97;;;1.07;;
19127;SDS011;9696;53.686;10.094;2022-07-10T02:28:09;6.70;;;1.20;;
19127;SDS011;9696;53.686;10.094;2022-07-10T02:30:38;8.23;;;1.67;;
19127;SDS011;9696;53.686;10.094;2022-07-10T02:33:10;5.73;;;1.23;;
19127;SDS011;9696;53.686;10.094;2022-07-10T02:35:41;3.20;;;0.97;;
19127;SDS011;9696;53.686;10.094;2022-07-10T02:38:09;4.43;;;1.33;;
19127;SDS011;9696;53.686;10.094;2022-07-10T02:40:38;6.53;;;1.10;;
19127;SDS011;9696;53.686;10.094;2022-07-10T02:43:08;8.13;;;1.70;;
19127;SDS011;9696;53.686;10.094;2022-07-10T02:45:36;3.13;;;1.10;;
19127;SDS011;9696;53.686;10.094;2022-07-10T02:48:11;9.37;;;1.10;;
19127;SDS011;9696;53.686;10.094;2022-07-10T02:50:41;7.10;;;1.70;;
19127;SDS011;9696;53.686;10.094;2022-07-10T02:53:09;8.27;;;1.03;;
19127;SDS011;9696;53.686;10.094;2022-07-10T02:55:38;10.03;;;1.40;;
19127;SDS011;9696;53.686;10.094;2022-07-10T02:58:08;8.10;;;1.30;;
19127;SDS011;9696;53.686;10.094;2022-07-10T03:00:37;11.73;;;1.57;;
19127;SDS011;9696;53.686;10.094;2022-07-10T03:03:07;6.70;;;1.40;;
19127;SDS011;9696;53.686;10.094;2022-07-10T03:05:35;5.40;;;1.30;;
19127;SDS011;9696;53.686;10.094;2022-07-10T03:08:04;7.93;;;1.20;;
19127;SDS011;9696;53.686;10.094;2022-07-10T03:10:33;8.90;;;1.50;;
19127;SDS011;9696;53.686;10.094;2022-07-10T03:13:01;8.80;;;1.70;;
19127;SDS011;9696;53.686;10.094;2022-07-10T03:15:31;7.30;;;1.27;;
19127;SDS011;9696;53.686;10.094;2022-07-10T03:18:00;19.30;;;2.33;;
19127;SDS011;9696;53.686;10.094;2022-07-10T03:20:29;8.33;;;1.37;;
19127;SDS011;9696;53.686;10.094;2022-07-10T03:22:57;15.83;;;1.80;;
19127;SDS011;9696;53.686;10.094;2022-07-10T03:25:26;7.57;;;1.23;;
19127;SDS011;9696;53.686;10.094;2022-07-10T03:27:54;8.73;;;1.37;;
19127;SDS011;9696;53.686;10.094;2022-07-10T03:30:22;10.77;;;1.73;;
19127;SDS011;9696;53.686;10.094;2022-07-10T03:32:52;11.87;;;1.80;;
19127;SDS011;9696;53.686;10.094;2022-07-10T03:35:21;11.90;;;1.83;;
19127;SDS011;9696;53.686;10.094;2022-07-10T03:37:49;7.03;;;1.60;;
19127;SDS011;9696;53.686;10.094;2022-07-10T03:40:18;9.20;;;1.17;;
19127;SDS011;9696;53.686;10.094;2022-07-10T03:42:46;14.93;;;1.50;;
19127;SDS011;9696;53.686;10.094;2022-07-10T03:45:15;9.57;;;1.67;;
19127;SDS011;9696;53.686;10.094;2022-07-10T03:47:43;6.73;;;1.30;;
19127;SDS011;9696;53.686;10.094;2022-07-10T03:50:13;11.93;;;1.40;;
19127;SDS011;9696;53.686;10.094;2022-07-10T03:52:41;7.70;;;1.27;;
19127;SDS011;9696;53.686;10.094;2022-07-10T03:55:12;18.80;;;2.13;;
19127;SDS011;9696;53.686;10.094;2022-07-10T03:57:40;12.00;;;2.00;;
19127;SDS011;9696;53.686;10.094;2022-07-10T04:00:20;10.07;;;1.53;;
19127;SDS011;9696;53.686;10.094;2022-07-10T04:02:55;12.93;;;1.43;;
19127;SDS011;9696;53.686;10.094;2022-07-10T04:05:25;7.78;;;1.50;;
19127;SDS011;9696;53.686;10.094;2022-07-10T04:07:55;11.90;;;1.40;;
19127;SDS011;9696;53.686;10.094;2022-07-10T04:10:25;11.67;;;2.03;;
19127;SDS011;9696;53.686;10.094;2022-07-10T04:12:54;5.67;;;1.53;;
19127;SDS011;9696;53.686;10.094;2022-07-10T04:15:23;8.53;;;1.70;;
19127;SDS011;9696;53.686;10.094;2022-07-10T04:17:51;11.77;;;2.13;;
19127;SDS011;9696;53.686;10.094;2022-07-10T04:20:20;22.07;;;1.80;;
19127;SDS011;9696;53.686;10.094;2022-07-10T04:22:51;11.23;;;2.13;;
19127;SDS011;9696;53.686;10.094;2022-07-10T04:25:22;12.43;;;2.17;;
19127;SDS011;9696;53.686;10.094;2022-07-10T04:27:50;12.83;;;2.07;;
19127;SDS011;9696;53.686;10.094;2022-07-10T04:30:19;9.03;;;1.50;;
19127;SDS011;9696;53.686;10.094;2022-07-10T04:32:47;12.30;;;2.00;;
19127;SDS011;9696;53.686;10.094;2022-07-10T04:35:15;8.50;;;1.83;;
19127;SDS011;9696;53.686;10.094;2022-07-10T04:37:44;13.27;;;2.17;;
19127;SDS011;9696;53.686;10.094;2022-07-10T04:40:14;12.30;;;1.93;;
19127;SDS011;9696;53.686;10.094;2022-07-10T04:42:43;7.60;;;1.93;;
19127;SDS011;9696;53.686;10.094;2022-07-10T04:45:11;13.98;;;2.22;;
19127;SDS011;9696;53.686;10.094;2022-07-10T04:47:40;9.55;;;1.77;;
19127;SDS011;9696;53.686;10.094;2022-07-10T04:50:10;14.00;;;1.80;;
19127;SDS011;9696;53.686;10.094;2022-07-10T04:52:38;15.17;;;2.00;;
19127;SDS011;9696;53.686;10.094;2022-07-10T04:55:07;12.77;;;1.80;;
19127;SDS011;9696;53.686;10.094;2022-07-10T04:57:37;7.85;;;1.40;;
19127;SDS011;9696;53.686;10.094;2022-07-10T05:00:11;5.67;;;1.70;;
19127;SDS011;9696;53.686;10.094;2022-07-10T05:02:40;14.80;;;2.00;;
19127;SDS011;9696;53.686;10.094;2022-07-10T05:05:11;10.70;;;1.80;;
19127;SDS011;9696;53.686;10.094;2022-07-10T05:07:40;14.53;;;2.27;;
19127;SDS011;9696;53.686;10.094;2022-07-10T05:10:11;13.50;;;1.77;;
19127;SDS011;9696;53.686;10.094;2022-07-10T05:12:41;9.98;;;1.48;;
19127;SDS011;9696;53.686;10.094;2022-07-10T05:15:10;11.27;;;1.95;;
19127;SDS011;9696;53.686;10.094;2022-07-10T05:17:39;13.75;;;2.08;;
19127;SDS011;9696;53.686;10.094;2022-07-10T05:20:08;13.02;;;2.25;;
19127;SDS011;9696;53.686;10.094;2022-07-10T05:22:37;10.90;;;1.75;;
19127;SDS011;9696;53.686;10.094;2022-07-10T05:25:06;13.20;;;1.90;;
19127;SDS011;9696;53.686;10.094;2022-07-10T05:27:34;11.82;;;2.03;;
19127;SDS011;9696;53.686;10.094;2022-07-10T05:30:05;15.25;;;1.98;;
19127;SDS011;9696;53.686;10.094;2022-07-10T05:32:41;9.35;;;1.58;;
19127;SDS011;9696;53.686;10.094;2022-07-10T05:35:10;10.93;;;1.85;;
19127;SDS011;9696;53.686;10.094;2022-07-10T05:37:39;8.10;;;1.60;;
19127;SDS011;9696;53.686;10.094;2022-07-10T05:40:08;13.40;;;1.90;;
19127;SDS011;9696;53.686;10.094;2022-07-10T05:42:37;11.80;;;1.88;;
19127;SDS011;9696;53.686;10.094;2022-07-10T05:45:08;11.82;;;1.67;;
19127;SDS011;9696;53.686;10.094;2022-07-10T05:47:37;19.83;;;2.10;;
19127;SDS011;9696;53.686;10.094;2022-07-10T05:50:05;12.85;;;1.98;;
19127;SDS011;9696;53.686;10.094;2022-07-10T05:52:34;12.45;;;1.70;;
19127;SDS011;9696;53.686;10.094;2022-07-10T05:55:03;15.82;;;2.10;;
19127;SDS011;9696;53.686;10.094;2022-07-10T05:57:34;13.48;;;2.17;;
19127;SDS011;9696;53.686;10.094;2022-07-10T06:00:05;6.40;;;1.80;;
19127;SDS011;9696;53.686;10.094;2022-07-10T06:02:35;11.15;;;2.30;;
19127;SDS011;9696;53.686;10.094;2022-07-10T06:05:04;17.58;;;2.47;;
19127;SDS011;9696;53.686;10.094;2022-07-10T06:07:33;6.45;;;1.73;;
19127;SDS011;9696;53.686;10.094;2022-07-10T06:10:02;12.23;;;1.70;;
19127;SDS011;9696;53.686;10.094;2022-07-10T06:12:31;12.95;;;1.50;;
19127;SDS011;9696;53.686;10.094;2022-07-10T06:15:00;14.07;;;1.65;;
19127;SDS011;9696;53.686;10.094;2022-07-10T06:17:30;14.27;;;1.98;;
19127;SDS011;9696;53.686;10.094;2022-07-10T06:19:58;9.50;;;1.63;;
19127;SDS011;9696;53.686;10.094;2022-07-10T06:22:27;10.98;;;1.90;;
19127;SDS011;9696;53.686;10.094;2022-07-10T06:24:59;8.38;;;1.65;;
19127;SDS011;9696;53.686;10.094;2022-07-10T06:27:28;12.23;;;1.98;;
19127;SDS011;9696;53.686;10.094;2022-07-10T06:29:57;9.50;;;1.55;;
19127;SDS011;9696;53.686;10.094;2022-07-10T06:32:26;23.48;;;2.28;;
19127;SDS011;9696;53.686;10.094;2022-07-10T06:34:56;13.98;;;1.80;;
19127;SDS011;9696;53.686;10.094;2022-07-10T06:37:24;14.55;;;1.92;;
19127;SDS011;9696;53.686;10.094;2022-07-10T06:39:53;8.23;;;1.63;;
19127;SDS011;9696;53.686;10.094;2022-07-10T06:42:22;13.40;;;1.33;;
19127;SDS011;9696;53.686;10.094;2022-07-10T06:44:50;19.80;;;2.40;;
19127;SDS011;9696;53.686;10.094;2022-07-10T06:47:18;13.90;;;1.73;;
19127;SDS011;9696;53.686;10.094;2022-07-10T06:50:07;10.98;;;1.95;;
19127;SDS011;9696;53.686;10.094;2022-07-10T06:52:36;8.50;;;1.75;;
19127;SDS011;9696;53.686;10.094;2022-07-10T06:55:05;4.57;;;1.42;;
19127;SDS011;9696;53.686;10.094;2022-07-10T06:57:34;11.88;;;1.75;;
19127;SDS011;9696;53.686;10.094;2022-07-10T07:00:03;8.90;;;1.50;;
19127;SDS011;9696;53.686;10.094;2022-07-10T07:02:32;18.90;;;1.45;;
19127;SDS011;9696;53.686;10.094;2022-07-10T07:05:02;9.15;;;1.42;;
19127;SDS011;9696;53.686;10.094;2022-07-10T07:07:33;16.90;;;1.88;;
19127;SDS011;9696;53.686;10.094;2022-07-10T07:10:01;8.32;;;1.60;;
19127;SDS011;9696;53.686;10.094;2022-07-10T07:12:30;11.18;;;1.60;;
19127;SDS011;9696;53.686;10.094;2022-07-10T07:14:59;14.82;;;1.70;;
19127;SDS011;9696;53.686;10.094;2022-07-10T07:17:27;6.78;;;1.20;;
19127;SDS011;9696;53.686;10.094;2022-07-10T07:20:02;16.10;;;1.30;;
19127;SDS011;9696;53.686;10.094;2022-07-10T07:22:50;3.55;;;1.13;;
19127;SDS011;9696;53.686;10.094;2022-07-10T07:25:36;10.20;;;1.50;;
19127;SDS011;9696;53.686;10.094;2022-07-10T07:28:06;6.78;;;1.08;;
19127;SDS011;9696;53.686;10.094;2022-07-10T07:30:35;6.68;;;1.10;;
19127;SDS011;9696;53.686;10.094;2022-07-10T07:33:04;10.65;;;1.17;;
19127;SDS011;9696;53.686;10.094;2022-07-10T07:35:32;5.68;;;1.40;;
19127;SDS011;9696;53.686;10.094;2022-07-10T07:38:02;6.75;;;1.45;;
19127;SDS011;9696;53.686;10.094;2022-07-10T07:40:32;11.02;;;1.23;;
19127;SDS011;9696;53.686;10.094;2022-07-10T07:43:03;3.55;;;0.82;;
19127;SDS011;9696;53.686;10.094;2022-07-10T07:45:32;7.38;;;0.88;;
19127;SDS011;9696;53.686;10.094;2022-07-10T07:48:00;3.92;;;0.90;;
19127;SDS011;9696;53.686;10.094;2022-07-10T07:50:30;3.90;;;0.95;;
19127;SDS011;9696;53.686;10.094;2022-07-10T07:53:04;10.07;;;1.20;;
19127;SDS011;9696;53.686;10.094;2022-07-10T07:55:33;6.28;;;1.50;;
19127;SDS011;9696;53.686;10.094;2022-07-10T07:58:02;5.05;;;1.08;;
19127;SDS011;9696;53.686;10.094;2022-07-10T08:00:31;11.57;;;1.30;;
19127;SDS011;9696;53.686;10.094;2022-07-10T08:02:59;5.95;;;0.95;;
19127;SDS011;9696;53.686;10.094;2022-07-10T08:05:28;9.75;;;1.25;;
19127;SDS011;9696;53.686;10.094;2022-07-10T08:07:57;5.97;;;0.80;;
19127;SDS011;9696;53.686;10.094;2022-07-10T08:10:32;8.65;;;1.00;;
19127;SDS011;9696;53.686;10.094;2022-07-10T08:13:05;6.90;;;1.13;;
19127;SDS011;9696;53.686;10.094;2022-07-10T08:15:33;8.20;;;0.70;;
19127;SDS011;9696;53.686;10.094;2022-07-10T08:18:02;7.25;;;1.08;;
19127;SDS011;9696;53.686;10.094;2022-07-10T08:20:31;3.47;;;1.02;;
19127;SDS011;9696;53.686;10.094;2022-07-10T08:22:59;6.20;;;1.23;;
19127;SDS011;9696;53.686;10.094;2022-07-10T08:25:28;9.68;;;0.93;;
19127;SDS011;9696;53.686;10.094;2022-07-10T08:28:03;4.72;;;0.60;;
19127;SDS011;9696;53.686;10.094;2022-07-10T08:30:32;6.15;;;1.05;;
19127;SDS011;9696;53.686;10.094;2022-07-10T08:33:01;6.32;;;1.10;;
19127;SDS011;9696;53.686;10.094;2022-07-10T08:35:30;6.28;;;0.93;;
19127;SDS011;9696;53.686;10.094;2022-07-10T08:37:58;6.32;;;1.05;;
19127;SDS011;9696;53.686;10.094;2022-07-10T08:40:28;5.63;;;1.20;;
19127;SDS011;9696;53.686;10.094;2022-07-10T08:43:02;10.18;;;1.10;;
19127;SDS011;9696;53.686;10.094;2022-07-10T08:45:31;3.83;;;1.00;;
19127;SDS011;9696;53.686;10.094;2022-07-10T08:48:01;6.78;;;1.10;;
19127;SDS011;9696;53.686;10.094;2022-07-10T08:50:32;11.95;;;1.48;;
19127;SDS011;9696;53.686;10.094;2022-07-10T08:53:08;9.35;;;1.23;;
19127;SDS011;9696;53.686;10.094;2022-07-10T08:55:39;5.93;;;1.00;;
19127;SDS011;9696;53.686;10.094;2022-07-10T08:58:09;12.50;;;1.40;;
19127;SDS011;9696;53.686;10.094;2022-07-10T09:00:38;10.98;;;1.00;;
19127;SDS011;9696;53.686;10.094;2022-07-10T09:03:07;9.85;;;1.33;;
19127;SDS011;9696;53.686;10.094;2022-07-10T09:05:36;8.30;;;1.00;;
19127;SDS011;9696;53.686;10.094;2022-07-10T09:08:04;8.27;;;1.05;;
19127;SDS011;9696;53.686;10.094;2022-07-10T09:10:49;4.55;;;0.80;;
19127;SDS011;9696;53.686;10.094;2022-07-10T09:13:19;5.68;;;1.00;;
19127;SDS011;9696;53.686;10.094;2022-07-10T09:15:50;8.63;;;1.10;;
19127;SDS011;9696;53.686;10.094;2022-07-10T09:18:22;4.38;;;1.00;;
19127;SDS011;9696;53.686;10.094;2022-07-10T09:20:52;3.17;;;1.33;;
19127;SDS011;9696;53.686;10.094;2022-07-10T09:23:21;7.55;;;0.73;;
19127;SDS011;9696;53.686;10.094;2022-07-10T09:25:52;10.02;;;0.90;;
19127;SDS011;9696;53.686;10.094;2022-07-10T09:28:22;9.00;;;1.00;;
19127;SDS011;9696;53.686;10.094;2022-07-10T09:30:51;11.85;;;1.25;;
19127;SDS011;9696;53.686;10.094;2022-07-10T09:33:21;7.80;;;1.15;;
19127;SDS011;9696;53.686;10.094;2022-07-10T09:38:50;7.50;;;1.10;;
19127;SDS011;9696;53.686;10.094;2022-07-10T09:41:24;8.45;;;1.08;;
19127;SDS011;9696;53.686;10.094;2022-07-10T09:43:56;5.70;;;1.08;;
19127;SDS011;9696;53.686;10.094;2022-07-10T09:46:26;6.55;;;0.98;;
19127;SDS011;9696;53.686;10.094;2022-07-10T09:49:01;11.05;;;1.20;;
19127;SDS011;9696;53.686;10.094;2022-07-10T09:51:31;10.77;;;1.25;;
19127;SDS011;9696;53.686;10.094;2022-07-10T09:54:01;6.07;;;0.95;;
19127;SDS011;9696;53.686;10.094;2022-07-10T09:56:32;3.45;;;1.10;;
19127;SDS011;9696;53.686;10.094;2022-07-10T09:59:08;3.63;;;0.80;;
19127;SDS011;9696;53.686;10.094;2022-07-10T10:01:40;14.70;;;1.25;;
19127;SDS011;9696;53.686;10.094;2022-07-10T10:04:12;3.28;;;0.90;;
19127;SDS011;9696;53.686;10.094;2022-07-10T10:06:42;7.13;;;1.05;;
19127;SDS011;9696;53.686;10.094;2022-07-10T10:09:12;5.95;;;1.10;;
19127;SDS011;9696;53.686;10.094;2022-07-10T10:11:43;7.05;;;1.10;;
19127;SDS011;9696;53.686;10.094;2022-07-10T10:14:13;8.43;;;0.85;;
19127;SDS011;9696;53.686;10.094;2022-07-10T10:16:44;5.70;;;1.00;;
19127;SDS011;9696;53.686;10.094;2022-07-10T10:19:13;6.32;;;0.90;;
19127;SDS011;9696;53.686;10.094;2022-07-10T10:22:00;4.90;;;0.88;;
19127;SDS011;9696;53.686;10.094;2022-07-10T10:24:31;5.45;;;0.82;;
19127;SDS011;9696;53.686;10.094;2022-07-10T10:27:00;6.53;;;1.17;;
19127;SDS011;9696;53.686;10.094;2022-07-10T10:29:31;9.07;;;1.05;;
19127;SDS011;9696;53.686;10.094;2022-07-10T10:32:01;6.60;;;0.85;;
19127;SDS011;9696;53.686;10.094;2022-07-10T10:34:40;5.95;;;1.08;;
19127;SDS011;9696;53.686;10.094;2022-07-10T10:40:00;6.90;;;1.05;;
19127;SDS011;9696;53.686;10.094;2022-07-10T10:42:32;8.60;;;1.02;;
19127;SDS011;9696;53.686;10.094;2022-07-10T10:47:57;8.55;;;0.85;;
19127;SDS011;9696;53.686;10.094;2022-07-10T10:50:47;4.15;;;0.80;;
19127;SDS011;9696;53.686;10.094;2022-07-10T10:53:17;3.55;;;0.80;;
19127;SDS011;9696;53.686;10.094;2022-07-10T10:58:49;11.93;;;1.45;;
19127;SDS011;9696;53.686;10.094;2022-07-10T11:01:27;8.20;;;0.90;;
19127;SDS011;9696;53.686;10.094;2022-07-10T11:04:14;7.65;;;0.88;;
19127;SDS011;9696;53.686;10.094;2022-07-10T11:06:44;8.40;;;0.98;;
19127;SDS011;9696;53.686;10.094;2022-07-10T11:09:22;8.20;;;0.95;;
19127;SDS011;9696;53.686;10.094;2022-07-10T11:11:58;9.07;;;0.70;;
19127;SDS011;9696;53.686;10.094;2022-07-10T11:14:27;5.43;;;0.75;;
19127;SDS011;9696;53.686;10.094;2022-07-10T11:16:58;2.97;;;0.80;;
19127;SDS011;9696;53.686;10.094;2022-07-10T11:19:27;5.70;;;1.00;;
19127;SDS011;9696;53.686;10.094;2022-07-10T11:25:19;3.28;;;0.90;;
19127;SDS011;9696;53.686;10.094;2022-07-10T11:28:03;4.88;;;0.50;;
19127;SDS011;9696;53.686;10.094;2022-07-10T11:30:45;6.90;;;0.90;;
19127;SDS011;9696;53.686;10.094;2022-07-10T11:33:16;9.90;;;0.93;;
19127;SDS011;9696;53.686;10.094;2022-07-10T11:35:45;7.13;;;0.85;;
19127;SDS011;9696;53.686;10.094;2022-07-10T11:38:18;6.05;;;1.00;;
19127;SDS011;9696;53.686;10.094;2022-07-10T11:40:47;4.18;;;0.77;;
19127;SDS011;9696;53.686;10.094;2022-07-10T11:43:18;8.80;;;0.80;;
19127;SDS011;9696;53.686;10.094;2022-07-10T11:45:50;5.55;;;0.80;;
19127;SDS011;9696;53.686;10.094;2022-07-10T11:51:27;4.68;;;0.60;;
19127;SDS011;9696;53.686;10.094;2022-07-10T11:53:58;7.43;;;1.13;;
19127;SDS011;9696;53.686;10.094;2022-07-10T11:56:28;6.45;;;0.80;;
19127;SDS011;9696;53.686;10.094;2022-07-10T11:58:59;4.32;;;0.80;;
19127;SDS011;9696;53.686;10.094;2022-07-10T12:01:29;7.15;;;0.90;;
19127;SDS011;9696;53.686;10.094;2022-07-10T12:04:02;13.20;;;0.98;;
19127;SDS011;9696;53.686;10.094;2022-07-10T12:06:32;9.70;;;1.00;;
19127;SDS011;9696;53.686;10.094;2022-07-10T12:09:02;7.57;;;0.70;;
19127;SDS011;9696;53.686;10.094;2022-07-10T12:11:32;6.18;;;0.85;;
19127;SDS011;9696;53.686;10.094;2022-07-10T12:14:13;2.75;;;0.60;;
19127;SDS011;9696;53.686;10.094;2022-07-10T12:16:44;7.43;;;1.00;;
19127;SDS011;9696;53.686;10.094;2022-07-10T12:19:14;4.00;;;0.73;;
19127;SDS011;9696;53.686;10.094;2022-07-10T12:21:44;8.65;;;1.05;;
19127;SDS011;9696;53.686;10.094;2022-07-10T12:24:19;7.43;;;0.90;;
19127;SDS011;9696;53.686;10.094;2022-07-10T12:26:50;7.43;;;0.80;;
19127;SDS011;9696;53.686;10.094;2022-07-10T12:29:22;6.32;;;0.80;;
19127;SDS011;9696;53.686;10.094;2022-07-10T12:31:52;7.03;;;0.90;;
19127;SDS011;9696;53.686;10.094;2022-07-10T12:34:33;5.20;;;1.10;;
19127;SDS011;9696;53.686;10.094;2022-07-10T12:37:06;3.47;;;0.73;;
19127;SDS011;9696;53.686;10.094;2022-07-10T12:39:36;7.65;;;0.88;;
19127;SDS011;9696;53.686;10.094;2022-07-10T12:42:06;3.38;;;0.60;;
19127;SDS011;9696;53.686;10.094;2022-07-10T12:44:38;11.38;;;1.20;;
19127;SDS011;9696;53.686;10.094;2022-07-10T12:47:08;7.43;;;0.80;;
19127;SDS011;9696;53.686;10.094;2022-07-10T12:49:50;8.80;;;0.90;;
19127;SDS011;9696;53.686;10.094;2022-07-10T12:52:20;6.25;;;1.00;;
19127;SDS011;9696;53.686;10.094;2022-07-10T12:55:06;5.20;;;0.85;;
19127;SDS011;9696;53.686;10.094;2022-07-10T12:57:46;3.40;;;1.00;;
19127;SDS011;9696;53.686;10.094;2022-07-10T13:00:16;6.95;;;0.95;;
19127;SDS011;9696;53.686;10.094;2022-07-10T13:02:46;4.43;;;0.93;;
19127;SDS011;9696;53.686;10.094;2022-07-10T13:05:28;6.15;;;0.90;;
19127;SDS011;9696;53.686;10.094;2022-07-10T13:08:08;6.75;;;1.10;;
19127;SDS011;9696;53.686;10.094;2022-07-10T13:10:39;7.07;;;1.08;;
19127;SDS011;9696;53.686;10.094;2022-07-10T13:13:09;5.22;;;1.27;;
19127;SDS011;9696;53.686;10.094;2022-07-10T13:15:37;5.13;;;0.90;;
19127;SDS011;9696;53.686;10.094;2022-07-10T13:18:07;8.48;;;1.20;;
19127;SDS011;9696;53.686;10.094;2022-07-10T13:20:42;5.53;;;0.82;;
19127;SDS011;9696;53.686;10.094;2022-07-10T13:23:10;4.95;;;0.98;;
19127;SDS011;9696;53.686;10.094;2022-07-10T13:25:40;4.95;;;0.73;;
19127;SDS011;9696;53.686;10.094;2022-07-10T13:28:09;3.95;;;0.90;;
19127;SDS011;9696;53.686;10.094;2022-07-10T13:30:44;3.40;;;0.75;;
19127;SDS011;9696;53.686;10.094;2022-07-10T13:33:14;6.55;;;1.13;;
19127;SDS011;9696;53.686;10.094;2022-07-10T13:35:45;7.85;;;0.98;;
19127;SDS011;9696;53.686;10.094;2022-07-10T13:38:14;10.05;;;1.35;;
19127;SDS011;9696;53.686;10.094;2022-07-10T13:40:44;6.28;;;1.02;;
19127;SDS011;9696;53.686;10.094;2022-07-10T13:43:13;7.45;;;0.88;;
19127;SDS011;9696;53.686;10.094;2022-07-10T13:45:43;4.35;;;0.85;;
19127;SDS011;9696;53.686;10.094;2022-07-10T13:48:13;7.93;;;1.23;;
19127;SDS011;9696;53.686;10.094;2022-07-10T13:50:43;4.93;;;0.90;;
19127;SDS011;9696;53.686;10.094;2022-07-10T13:53:14;7.18;;;1.02;;
19127;SDS011;9696;53.686;10.094;2022-07-10T13:55:44;5.45;;;0.65;;
19127;SDS011;9696;53.686;10.094;2022-07-10T13:58:13;6.65;;;1.02;;
19127;SDS011;9696;53.686;10.094;2022-07-10T14:00:47;5.63;;;0.95;;
19127;SDS011;9696;53.686;10.094;2022-07-10T14:03:18;11.02;;;1.25;;
19127;SDS011;9696;53.686;10.094;2022-07-10T14:05:48;7.45;;;1.10;;
19127;SDS011;9696;53.686;10.094;2022-07-10T14:08:17;4.65;;;0.80;;
19127;SDS011;9696;53.686;10.094;2022-07-10T14:10:45;6.65;;;0.95;;
19127;SDS011;9696;53.686;10.094;2022-07-10T14:13:14;10.25;;;0.93;;
19127;SDS011;9696;53.686;10.094;2022-07-10T14:15:43;10.50;;;1.05;;
19127;SDS011;9696;53.686;10.094;2022-07-10T14:18:13;7.22;;;1.10;;
19127;SDS011;9696;53.686;10.094;2022-07-10T14:21:03;11.95;;;1.35;;
19127;SDS011;9696;53.686;10.094;2022-07-10T14:23:35;4.65;;;0.90;;
19127;SDS011;9696;53.686;10.094;2022-07-10T14:26:08;4.93;;;0.65;;
19127;SDS011;9696;53.686;10.094;2022-07-10T14:28:37;7.40;;;1.00;;
19127;SDS011;9696;53.686;10.094;2022-07-10T14:31:07;10.10;;;1.10;;
19127;SDS011;9696;53.686;10.094;2022-07-10T14:33:37;10.60;;;1.25;;
19127;SDS011;9696;53.686;10.094;2022-07-10T14:36:08;3.20;;;0.80;;
19127;SDS011;9696;53.686;10.094;2022-07-10T14:38:37;6.65;;;0.95;;
19127;SDS011;9696;53.686;10.094;2022-07-10T14:41:07;8.27;;;0.88;;
19127;SDS011;9696;53.686;10.094;2022-07-10T14:43:36;4.03;;;0.73;;
19127;SDS011;9696;53.686;10.094;2022-07-10T14:46:06;7.22;;;0.95;;
19127;SDS011;9696;53.686;10.094;2022-07-10T14:48:36;4.95;;;0.88;;
19127;SDS011;9696;53.686;10.094;2022-07-10T14:51:05;6.55;;;0.80;;
19127;SDS011;9696;53.686;10.094;2022-07-10T14:53:36;6.95;;;0.95;;
19127;SDS011;9696;53.686;10.094;2022-07-10T14:56:08;3.20;;;0.52;;
19127;SDS011;9696;53.686;10.094;2022-07-10T14:58:37;3.08;;;0.63;;
19127;SDS011;9696;53.686;10.094;2022-07-10T15:01:26;3.97;;;0.80;;
19127;SDS011;9696;53.686;10.094;2022-07-10T15:03:54;7.35;;;1.08;;
19127;SDS011;9696;53.686;10.094;2022-07-10T15:06:26;1.88;;;0.60;;
19127;SDS011;9696;53.686;10.094;2022-07-10T15:08:54;6.50;;;0.80;;
19127;SDS011;9696;53.686;10.094;2022-07-10T15:11:23;10.25;;;1.25;;
19127;SDS011;9696;53.686;10.094;2022-07-10T15:13:52;8.73;;;1.02;;
19127;SDS011;9696;53.686;10.094;2022-07-10T15:16:25;2.55;;;0.65;;
19127;SDS011;9696;53.686;10.094;2022-07-10T15:18:54;5.35;;;1.02;;
19127;SDS011;9696;53.686;10.094;2022-07-10T15:21:23;5.18;;;0.82;;